sensor_id;sensor_type;location;lat;lon;timestamp;P1;durP1;ratioP1;P2;durP2;ratioP2
68718;SDS011;55696;52.138;5.444;2023-11-21T00:01:06;19.40;;;8.13;;
68718;SDS011;55696;52.138;5.444;2023-11-21T00:03:35;24.00;;;8.60;;
68718;SDS011;55696;52.138;5.444;2023-11-21T00:06:02;15.70;;;7.10;;
68718;SDS011;55696;52.138;5.444;2023-11-21T00:08:29;16.67;;;7.63;;
68718;SDS011;55696;52.138;5.444;2023-11-21T00:10:56;17.75;;;8.38;;
68718;SDS011;55696;52.138;5.444;2023-11-21T00:13:23;18.67;;;8.45;;
68718;SDS011;55696;52.138;5.444;2023-11-21T00:15:50;21.13;;;9.13;;
68718;SDS011;55696;52.138;5.444;2023-11-21T00:18:17;19.13;;;8.57;;
68718;SDS011;55696;52.138;5.444;2023-11-21T00:20:44;16.00;;;7.82;;
68718;SDS011;55696;52.138;5.444;2023-11-21T00:23:11;17.75;;;8.55;;
68718;SDS011;55696;52.138;5.444;2023-11-21T00:25:38;17.95;;;7.90;;
68718;SDS011;55696;52.138;5.444;2023-11-21T00:28:04;19.07;;;9.00;;
68718;SDS011;55696;52.138;5.444;2023-11-21T00:30:32;18.77;;;8.70;;
68718;SDS011;55696;52.138;5.444;2023-11-21T00:32:59;20.27;;;8.75;;
68718;SDS011;55696;52.138;5.444;2023-11-21T00:35:26;24.40;;;8.88;;
68718;SDS011;55696;52.138;5.444;2023-11-21T00:37:53;25.10;;;8.80;;
68718;SDS011;55696;52.138;5.444;2023-11-21T00:40:20;30.27;;;9.23;;
68718;SDS011;55696;52.138;5.444;2023-11-21T00:42:47;22.70;;;9.57;;
68718;SDS011;55696;52.138;5.444;2023-11-21T00:45:14;27.02;;;9.07;;
68718;SDS011;55696;52.138;5.444;2023-11-21T00:47:41;22.70;;;8.98;;
68718;SDS011;55696;52.138;5.444;2023-11-21T00:50:09;18.48;;;7.97;;
68718;SDS011;55696;52.138;5.444;2023-11-21T00:52:36;22.27;;;8.83;;
68718;SDS011;55696;52.138;5.444;2023-11-21T00:55:06;18.85;;;8.57;;
68718;SDS011;55696;52.138;5.444;2023-11-21T00:57:34;16.60;;;8.43;;
68718;SDS011;55696;52.138;5.444;2023-11-21T01:00:02;16.90;;;8.18;;
68718;SDS011;55696;52.138;5.444;2023-11-21T01:02:34;21.70;;;8.57;;
68718;SDS011;55696;52.138;5.444;2023-11-21T01:05:02;15.57;;;7.63;;
68718;SDS011;55696;52.138;5.444;2023-11-21T01:07:30;16.15;;;7.28;;
68718;SDS011;55696;52.138;5.444;2023-11-21T01:09:57;18.15;;;8.13;;
68718;SDS011;55696;52.138;5.444;2023-11-21T01:12:23;17.70;;;7.25;;
68718;SDS011;55696;52.138;5.444;2023-11-21T01:14:51;17.10;;;7.97;;
68718;SDS011;55696;52.138;5.444;2023-11-21T01:17:19;15.90;;;8.23;;
68718;SDS011;55696;52.138;5.444;2023-11-21T01:19:50;13.60;;;6.63;;
68718;SDS011;55696;52.138;5.444;2023-11-21T01:22:17;15.05;;;6.72;;
68718;SDS011;55696;52.138;5.444;2023-11-21T01:24:48;12.48;;;6.47;;
68718;SDS011;55696;52.138;5.444;2023-11-21T01:27:15;13.00;;;7.13;;
68718;SDS011;55696;52.138;5.444;2023-11-21T01:29:43;13.77;;;7.43;;
68718;SDS011;55696;52.138;5.444;2023-11-21T01:32:10;14.63;;;7.45;;
68718;SDS011;55696;52.138;5.444;2023-11-21T01:34:37;12.82;;;7.18;;
68718;SDS011;55696;52.138;5.444;2023-11-21T01:37:05;10.70;;;6.28;;
68718;SDS011;55696;52.138;5.444;2023-11-21T01:39:32;13.20;;;7.30;;
68718;SDS011;55696;52.138;5.444;2023-11-21T01:41:59;13.33;;;7.53;;
68718;SDS011;55696;52.138;5.444;2023-11-21T01:44:25;14.00;;;6.85;;
68718;SDS011;55696;52.138;5.444;2023-11-21T01:46:52;12.70;;;6.90;;
68718;SDS011;55696;52.138;5.444;2023-11-21T01:49:20;14.45;;;7.60;;
68718;SDS011;55696;52.138;5.444;2023-11-21T01:51:47;14.15;;;7.00;;
68718;SDS011;55696;52.138;5.444;2023-11-21T01:54:16;12.73;;;7.03;;
68718;SDS011;55696;52.138;5.444;2023-11-21T01:56:45;12.15;;;7.00;;
68718;SDS011;55696;52.138;5.444;2023-11-21T01:59:13;11.23;;;6.43;;
68718;SDS011;55696;52.138;5.444;2023-11-21T02:01:44;13.88;;;7.18;;
68718;SDS011;55696;52.138;5.444;2023-11-21T02:04:13;13.55;;;7.03;;
68718;SDS011;55696;52.138;5.444;2023-11-21T02:06:40;13.87;;;7.03;;
68718;SDS011;55696;52.138;5.444;2023-11-21T02:09:07;14.77;;;7.15;;
68718;SDS011;55696;52.138;5.444;2023-11-21T02:11:35;13.77;;;6.85;;
68718;SDS011;55696;52.138;5.444;2023-11-21T02:14:02;12.90;;;6.88;;
68718;SDS011;55696;52.138;5.444;2023-11-21T02:16:29;14.68;;;6.00;;
68718;SDS011;55696;52.138;5.444;2023-11-21T02:18:57;14.33;;;6.90;;
68718;SDS011;55696;52.138;5.444;2023-11-21T02:21:25;13.93;;;6.47;;
68718;SDS011;55696;52.138;5.444;2023-11-21T02:23:52;13.90;;;6.47;;
68718;SDS011;55696;52.138;5.444;2023-11-21T02:26:19;13.05;;;6.63;;
68718;SDS011;55696;52.138;5.444;2023-11-21T02:28:46;15.18;;;7.03;;
68718;SDS011;55696;52.138;5.444;2023-11-21T02:31:14;14.03;;;6.97;;
68718;SDS011;55696;52.138;5.444;2023-11-21T02:33:41;12.02;;;6.63;;
68718;SDS011;55696;52.138;5.444;2023-11-21T02:36:08;12.85;;;6.30;;
68718;SDS011;55696;52.138;5.444;2023-11-21T02:38:35;14.95;;;6.90;;
68718;SDS011;55696;52.138;5.444;2023-11-21T02:41:02;11.93;;;6.45;;
68718;SDS011;55696;52.138;5.444;2023-11-21T02:43:31;14.50;;;5.90;;
68718;SDS011;55696;52.138;5.444;2023-11-21T02:45:58;12.52;;;6.00;;
68718;SDS011;55696;52.138;5.444;2023-11-21T02:48:25;14.57;;;6.45;;
68718;SDS011;55696;52.138;5.444;2023-11-21T02:50:52;12.32;;;6.13;;
68718;SDS011;55696;52.138;5.444;2023-11-21T02:53:19;12.15;;;6.43;;
68718;SDS011;55696;52.138;5.444;2023-11-21T02:55:46;14.77;;;6.63;;
68718;SDS011;55696;52.138;5.444;2023-11-21T02:58:13;11.52;;;5.25;;
68718;SDS011;55696;52.138;5.444;2023-11-21T03:00:40;12.43;;;5.75;;
68718;SDS011;55696;52.138;5.444;2023-11-21T03:03:08;12.85;;;6.65;;
68718;SDS011;55696;52.138;5.444;2023-11-21T03:05:35;11.25;;;5.60;;
68718;SDS011;55696;52.138;5.444;2023-11-21T03:08:03;15.37;;;6.70;;
68718;SDS011;55696;52.138;5.444;2023-11-21T03:10:30;10.15;;;5.63;;
68718;SDS011;55696;52.138;5.444;2023-11-21T03:12:57;15.52;;;6.47;;
68718;SDS011;55696;52.138;5.444;2023-11-21T03:15:27;11.60;;;5.75;;
68718;SDS011;55696;52.138;5.444;2023-11-21T03:17:54;12.02;;;5.70;;
68718;SDS011;55696;52.138;5.444;2023-11-21T03:20:21;9.80;;;5.60;;
68718;SDS011;55696;52.138;5.444;2023-11-21T03:22:48;10.65;;;5.47;;
68718;SDS011;55696;52.138;5.444;2023-11-21T03:25:15;13.02;;;5.40;;
68718;SDS011;55696;52.138;5.444;2023-11-21T03:27:43;12.45;;;6.22;;
68718;SDS011;55696;52.138;5.444;2023-11-21T03:30:10;16.48;;;6.60;;
68718;SDS011;55696;52.138;5.444;2023-11-21T03:32:37;14.20;;;5.47;;
68718;SDS011;55696;52.138;5.444;2023-11-21T03:35:05;18.95;;;5.97;;
68718;SDS011;55696;52.138;5.444;2023-11-21T03:37:32;12.15;;;5.40;;
68718;SDS011;55696;52.138;5.444;2023-11-21T03:40:00;15.18;;;5.40;;
68718;SDS011;55696;52.138;5.444;2023-11-21T03:42:27;14.15;;;6.28;;
68718;SDS011;55696;52.138;5.444;2023-11-21T03:44:54;13.97;;;5.97;;
68718;SDS011;55696;52.138;5.444;2023-11-21T03:47:22;11.25;;;5.93;;
68718;SDS011;55696;52.138;5.444;2023-11-21T03:49:49;12.45;;;6.40;;
68718;SDS011;55696;52.138;5.444;2023-11-21T03:52:16;14.95;;;6.55;;
68718;SDS011;55696;52.138;5.444;2023-11-21T03:54:43;18.17;;;6.90;;
68718;SDS011;55696;52.138;5.444;2023-11-21T03:57:10;14.70;;;6.40;;
68718;SDS011;55696;52.138;5.444;2023-11-21T03:59:41;11.98;;;5.85;;
68718;SDS011;55696;52.138;5.444;2023-11-21T04:02:08;14.10;;;6.03;;
68718;SDS011;55696;52.138;5.444;2023-11-21T04:04:35;12.27;;;5.72;;
68718;SDS011;55696;52.138;5.444;2023-11-21T04:07:02;11.65;;;5.85;;
68718;SDS011;55696;52.138;5.444;2023-11-21T04:09:29;14.77;;;6.60;;
68718;SDS011;55696;52.138;5.444;2023-11-21T04:11:56;11.63;;;5.93;;
68718;SDS011;55696;52.138;5.444;2023-11-21T04:14:23;18.80;;;7.57;;
68718;SDS011;55696;52.138;5.444;2023-11-21T04:16:50;18.23;;;5.97;;
68718;SDS011;55696;52.138;5.444;2023-11-21T04:19:17;13.15;;;6.88;;
68718;SDS011;55696;52.138;5.444;2023-11-21T04:21:43;11.97;;;5.47;;
68718;SDS011;55696;52.138;5.444;2023-11-21T04:24:11;10.68;;;6.00;;
68718;SDS011;55696;52.138;5.444;2023-11-21T04:26:38;14.25;;;6.53;;
68718;SDS011;55696;52.138;5.444;2023-11-21T04:29:04;19.42;;;6.28;;
68718;SDS011;55696;52.138;5.444;2023-11-21T04:31:31;10.98;;;5.18;;
68718;SDS011;55696;52.138;5.444;2023-11-21T04:33:58;15.83;;;6.27;;
68718;SDS011;55696;52.138;5.444;2023-11-21T04:36:25;16.55;;;6.30;;
68718;SDS011;55696;52.138;5.444;2023-11-21T04:38:52;14.02;;;6.57;;
68718;SDS011;55696;52.138;5.444;2023-11-21T04:41:19;11.23;;;5.85;;
68718;SDS011;55696;52.138;5.444;2023-11-21T04:43:46;15.43;;;6.60;;
68718;SDS011;55696;52.138;5.444;2023-11-21T04:46:13;13.50;;;5.57;;
68718;SDS011;55696;52.138;5.444;2023-11-21T04:48:40;16.75;;;6.38;;
68718;SDS011;55696;52.138;5.444;2023-11-21T04:51:07;15.63;;;6.07;;
68718;SDS011;55696;52.138;5.444;2023-11-21T04:53:34;17.13;;;6.85;;
68718;SDS011;55696;52.138;5.444;2023-11-21T04:56:01;17.67;;;6.28;;
68718;SDS011;55696;52.138;5.444;2023-11-21T04:58:29;15.73;;;6.30;;
68718;SDS011;55696;52.138;5.444;2023-11-21T05:00:57;17.33;;;7.18;;
68718;SDS011;55696;52.138;5.444;2023-11-21T05:03:23;15.13;;;6.85;;
68718;SDS011;55696;52.138;5.444;2023-11-21T05:05:51;11.85;;;6.32;;
68718;SDS011;55696;52.138;5.444;2023-11-21T05:08:18;14.90;;;7.25;;
68718;SDS011;55696;52.138;5.444;2023-11-21T05:10:46;16.03;;;6.80;;
68718;SDS011;55696;52.138;5.444;2023-11-21T05:13:14;18.85;;;6.53;;
68718;SDS011;55696;52.138;5.444;2023-11-21T05:15:44;14.05;;;6.50;;
68718;SDS011;55696;52.138;5.444;2023-11-21T05:18:11;15.65;;;7.32;;
68718;SDS011;55696;52.138;5.444;2023-11-21T05:20:40;13.90;;;6.63;;
68718;SDS011;55696;52.138;5.444;2023-11-21T05:23:08;15.83;;;7.63;;
68718;SDS011;55696;52.138;5.444;2023-11-21T05:25:35;21.90;;;7.97;;
68718;SDS011;55696;52.138;5.444;2023-11-21T05:28:06;16.77;;;6.22;;
68718;SDS011;55696;52.138;5.444;2023-11-21T05:30:33;19.70;;;7.93;;
68718;SDS011;55696;52.138;5.444;2023-11-21T05:33:00;17.25;;;6.75;;
68718;SDS011;55696;52.138;5.444;2023-11-21T05:35:27;13.13;;;7.00;;
68718;SDS011;55696;52.138;5.444;2023-11-21T05:37:53;18.92;;;7.20;;
68718;SDS011;55696;52.138;5.444;2023-11-21T05:40:20;17.35;;;7.70;;
68718;SDS011;55696;52.138;5.444;2023-11-21T05:42:49;14.38;;;7.55;;
68718;SDS011;55696;52.138;5.444;2023-11-21T05:45:17;18.55;;;6.60;;
68718;SDS011;55696;52.138;5.444;2023-11-21T05:47:45;22.03;;;7.20;;
68718;SDS011;55696;52.138;5.444;2023-11-21T05:50:14;16.75;;;8.02;;
68718;SDS011;55696;52.138;5.444;2023-11-21T05:52:43;22.55;;;7.40;;
68718;SDS011;55696;52.138;5.444;2023-11-21T05:55:14;14.10;;;6.40;;
68718;SDS011;55696;52.138;5.444;2023-11-21T05:57:44;17.13;;;6.95;;
68718;SDS011;55696;52.138;5.444;2023-11-21T06:00:12;18.53;;;7.50;;
68718;SDS011;55696;52.138;5.444;2023-11-21T06:02:48;17.15;;;6.90;;
68718;SDS011;55696;52.138;5.444;2023-11-21T06:05:23;20.33;;;7.75;;
68718;SDS011;55696;52.138;5.444;2023-11-21T06:07:52;12.77;;;6.45;;
68718;SDS011;55696;52.138;5.444;2023-11-21T06:10:21;17.38;;;6.07;;
68718;SDS011;55696;52.138;5.444;2023-11-21T06:12:50;14.23;;;6.97;;
68718;SDS011;55696;52.138;5.444;2023-11-21T06:15:17;19.13;;;6.60;;
68718;SDS011;55696;52.138;5.444;2023-11-21T06:17:46;16.33;;;7.30;;
68718;SDS011;55696;52.138;5.444;2023-11-21T06:20:18;16.13;;;7.75;;
68718;SDS011;55696;52.138;5.444;2023-11-21T06:22:46;16.35;;;6.78;;
68718;SDS011;55696;52.138;5.444;2023-11-21T06:25:14;14.00;;;7.10;;
68718;SDS011;55696;52.138;5.444;2023-11-21T06:27:42;17.63;;;6.88;;
68718;SDS011;55696;52.138;5.444;2023-11-21T06:30:11;19.73;;;7.80;;
68718;SDS011;55696;52.138;5.444;2023-11-21T06:32:39;16.90;;;7.90;;
68718;SDS011;55696;52.138;5.444;2023-11-21T06:35:07;20.02;;;8.52;;
68718;SDS011;55696;52.138;5.444;2023-11-21T06:37:37;15.40;;;6.80;;
68718;SDS011;55696;52.138;5.444;2023-11-21T06:40:04;21.90;;;8.38;;
68718;SDS011;55696;52.138;5.444;2023-11-21T06:42:32;15.73;;;7.57;;
68718;SDS011;55696;52.138;5.444;2023-11-21T06:45:04;17.63;;;7.93;;
68718;SDS011;55696;52.138;5.444;2023-11-21T06:47:31;18.45;;;7.60;;
68718;SDS011;55696;52.138;5.444;2023-11-21T06:49:59;24.50;;;7.77;;
68718;SDS011;55696;52.138;5.444;2023-11-21T06:52:26;17.38;;;7.57;;
68718;SDS011;55696;52.138;5.444;2023-11-21T06:54:54;14.50;;;7.05;;
68718;SDS011;55696;52.138;5.444;2023-11-21T06:57:22;18.60;;;7.75;;
68718;SDS011;55696;52.138;5.444;2023-11-21T06:59:49;16.08;;;7.43;;
68718;SDS011;55696;52.138;5.444;2023-11-21T07:02:16;18.17;;;6.70;;
68718;SDS011;55696;52.138;5.444;2023-11-21T07:04:45;18.23;;;7.28;;
68718;SDS011;55696;52.138;5.444;2023-11-21T07:07:12;20.08;;;7.78;;
68718;SDS011;55696;52.138;5.444;2023-11-21T07:09:39;14.65;;;6.50;;
68718;SDS011;55696;52.138;5.444;2023-11-21T07:12:06;18.52;;;7.20;;
68718;SDS011;55696;52.138;5.444;2023-11-21T07:14:34;17.23;;;6.23;;
68718;SDS011;55696;52.138;5.444;2023-11-21T07:17:01;10.98;;;5.57;;
68718;SDS011;55696;52.138;5.444;2023-11-21T07:19:28;15.93;;;6.70;;
68718;SDS011;55696;52.138;5.444;2023-11-21T07:21:55;12.13;;;6.40;;
68718;SDS011;55696;52.138;5.444;2023-11-21T07:24:22;13.70;;;6.07;;
68718;SDS011;55696;52.138;5.444;2023-11-21T07:26:52;13.77;;;7.00;;
68718;SDS011;55696;52.138;5.444;2023-11-21T07:29:26;16.33;;;6.18;;
68718;SDS011;55696;52.138;5.444;2023-11-21T07:31:52;18.58;;;6.47;;
68718;SDS011;55696;52.138;5.444;2023-11-21T07:34:20;13.35;;;5.40;;
68718;SDS011;55696;52.138;5.444;2023-11-21T07:36:47;10.20;;;5.70;;
68718;SDS011;55696;52.138;5.444;2023-11-21T07:39:14;12.60;;;6.10;;
68718;SDS011;55696;52.138;5.444;2023-11-21T07:41:42;18.02;;;6.97;;
68718;SDS011;55696;52.138;5.444;2023-11-21T07:44:16;12.40;;;6.07;;
68718;SDS011;55696;52.138;5.444;2023-11-21T07:46:47;20.48;;;6.40;;
68718;SDS011;55696;52.138;5.444;2023-11-21T07:49:14;13.43;;;6.35;;
68718;SDS011;55696;52.138;5.444;2023-11-21T07:51:43;16.37;;;6.07;;
68718;SDS011;55696;52.138;5.444;2023-11-21T07:54:10;14.75;;;5.82;;
68718;SDS011;55696;52.138;5.444;2023-11-21T07:56:37;12.98;;;5.68;;
68718;SDS011;55696;52.138;5.444;2023-11-21T07:59:04;19.70;;;6.15;;
68718;SDS011;55696;52.138;5.444;2023-11-21T08:01:31;18.90;;;6.28;;
68718;SDS011;55696;52.138;5.444;2023-11-21T08:03:58;18.30;;;5.87;;
68718;SDS011;55696;52.138;5.444;2023-11-21T08:06:30;16.38;;;6.18;;
68718;SDS011;55696;52.138;5.444;2023-11-21T08:08:57;11.25;;;5.55;;
68718;SDS011;55696;52.138;5.444;2023-11-21T08:11:24;15.23;;;5.68;;
68718;SDS011;55696;52.138;5.444;2023-11-21T08:13:52;14.95;;;6.18;;
68718;SDS011;55696;52.138;5.444;2023-11-21T08:16:20;16.13;;;5.93;;
68718;SDS011;55696;52.138;5.444;2023-11-21T08:18:47;14.90;;;5.80;;
68718;SDS011;55696;52.138;5.444;2023-11-21T08:21:14;15.43;;;6.03;;
68718;SDS011;55696;52.138;5.444;2023-11-21T08:23:41;12.25;;;5.10;;
68718;SDS011;55696;52.138;5.444;2023-11-21T08:26:07;11.35;;;5.80;;
68718;SDS011;55696;52.138;5.444;2023-11-21T08:28:35;10.80;;;4.97;;
68718;SDS011;55696;52.138;5.444;2023-11-21T08:31:02;11.35;;;4.45;;
68718;SDS011;55696;52.138;5.444;2023-11-21T08:33:29;14.50;;;4.90;;
68718;SDS011;55696;52.138;5.444;2023-11-21T08:35:56;14.43;;;5.18;;
68718;SDS011;55696;52.138;5.444;2023-11-21T08:38:23;12.80;;;4.80;;
68718;SDS011;55696;52.138;5.444;2023-11-21T08:40:50;14.23;;;4.83;;
68718;SDS011;55696;52.138;5.444;2023-11-21T08:43:16;14.45;;;5.53;;
68718;SDS011;55696;52.138;5.444;2023-11-21T08:45:46;13.35;;;5.18;;
68718;SDS011;55696;52.138;5.444;2023-11-21T08:48:13;15.55;;;5.32;;
68718;SDS011;55696;52.138;5.444;2023-11-21T08:50:40;14.98;;;5.28;;
68718;SDS011;55696;52.138;5.444;2023-11-21T08:53:06;13.80;;;6.00;;
68718;SDS011;55696;52.138;5.444;2023-11-21T08:55:34;14.88;;;5.80;;
68718;SDS011;55696;52.138;5.444;2023-11-21T08:58:04;15.98;;;6.53;;
68718;SDS011;55696;52.138;5.444;2023-11-21T09:00:32;12.15;;;6.32;;
68718;SDS011;55696;52.138;5.444;2023-11-21T09:03:00;14.80;;;6.13;;
68718;SDS011;55696;52.138;5.444;2023-11-21T09:05:28;13.23;;;5.77;;
68718;SDS011;55696;52.138;5.444;2023-11-21T09:07:55;15.55;;;6.72;;
68718;SDS011;55696;52.138;5.444;2023-11-21T09:10:22;12.98;;;7.22;;
68718;SDS011;55696;52.138;5.444;2023-11-21T09:12:51;13.32;;;7.05;;
68718;SDS011;55696;52.138;5.444;2023-11-21T09:15:18;12.68;;;6.20;;
68718;SDS011;55696;52.138;5.444;2023-11-21T09:17:47;13.57;;;6.67;;
68718;SDS011;55696;52.138;5.444;2023-11-21T09:20:14;17.17;;;7.68;;
68718;SDS011;55696;52.138;5.444;2023-11-21T09:22:41;16.67;;;7.47;;
68718;SDS011;55696;52.138;5.444;2023-11-21T09:25:11;13.75;;;7.57;;
68718;SDS011;55696;52.138;5.444;2023-11-21T09:27:39;17.27;;;9.15;;
68718;SDS011;55696;52.138;5.444;2023-11-21T09:30:06;17.17;;;8.03;;
68718;SDS011;55696;52.138;5.444;2023-11-21T09:32:40;16.55;;;8.05;;
68718;SDS011;55696;52.138;5.444;2023-11-21T09:35:07;16.27;;;7.60;;
68718;SDS011;55696;52.138;5.444;2023-11-21T09:37:35;17.80;;;8.32;;
68718;SDS011;55696;52.138;5.444;2023-11-21T09:40:02;14.90;;;7.72;;
68718;SDS011;55696;52.138;5.444;2023-11-21T09:42:36;12.70;;;7.60;;
68718;SDS011;55696;52.138;5.444;2023-11-21T09:47:47;16.75;;;8.07;;
68718;SDS011;55696;52.138;5.444;2023-11-21T09:50:15;16.13;;;7.93;;
68718;SDS011;55696;52.138;5.444;2023-11-21T09:55:48;16.80;;;8.23;;
68718;SDS011;55696;52.138;5.444;2023-11-21T09:58:18;21.25;;;9.32;;
68718;SDS011;55696;52.138;5.444;2023-11-21T10:00:46;15.63;;;7.40;;
68718;SDS011;55696;52.138;5.444;2023-11-21T10:03:14;17.25;;;7.82;;
68718;SDS011;55696;52.138;5.444;2023-11-21T10:05:42;14.10;;;7.38;;
68718;SDS011;55696;52.138;5.444;2023-11-21T10:08:12;15.40;;;7.43;;
68718;SDS011;55696;52.138;5.444;2023-11-21T10:10:43;18.90;;;8.27;;
68718;SDS011;55696;52.138;5.444;2023-11-21T10:13:12;18.38;;;7.80;;
68718;SDS011;55696;52.138;5.444;2023-11-21T10:15:43;16.38;;;7.75;;
68718;SDS011;55696;52.138;5.444;2023-11-21T10:18:15;15.88;;;7.20;;
68718;SDS011;55696;52.138;5.444;2023-11-21T10:20:43;13.27;;;7.43;;
68718;SDS011;55696;52.138;5.444;2023-11-21T10:23:12;14.00;;;7.22;;
68718;SDS011;55696;52.138;5.444;2023-11-21T10:25:40;17.23;;;7.28;;
68718;SDS011;55696;52.138;5.444;2023-11-21T10:28:07;15.20;;;6.95;;
68718;SDS011;55696;52.138;5.444;2023-11-21T10:30:37;12.10;;;6.43;;
68718;SDS011;55696;52.138;5.444;2023-11-21T10:33:05;16.23;;;6.80;;
68718;SDS011;55696;52.138;5.444;2023-11-21T10:35:39;13.52;;;7.00;;
68718;SDS011;55696;52.138;5.444;2023-11-21T10:38:21;12.55;;;6.03;;
68718;SDS011;55696;52.138;5.444;2023-11-21T10:40:50;11.35;;;5.75;;
68718;SDS011;55696;52.138;5.444;2023-11-21T10:43:18;14.48;;;6.70;;
68718;SDS011;55696;52.138;5.444;2023-11-21T10:45:45;13.47;;;7.03;;
68718;SDS011;55696;52.138;5.444;2023-11-21T10:48:13;15.50;;;6.70;;
68718;SDS011;55696;52.138;5.444;2023-11-21T10:50:45;15.15;;;6.60;;
68718;SDS011;55696;52.138;5.444;2023-11-21T10:53:13;11.30;;;5.63;;
68718;SDS011;55696;52.138;5.444;2023-11-21T10:55:40;14.07;;;6.32;;
68718;SDS011;55696;52.138;5.444;2023-11-21T10:58:08;10.43;;;4.60;;
68718;SDS011;55696;52.138;5.444;2023-11-21T11:00:39;10.50;;;4.60;;
68718;SDS011;55696;52.138;5.444;2023-11-21T11:03:07;11.98;;;5.40;;
68718;SDS011;55696;52.138;5.444;2023-11-21T11:05:40;12.05;;;5.70;;
68718;SDS011;55696;52.138;5.444;2023-11-21T11:08:15;15.48;;;5.97;;
68718;SDS011;55696;52.138;5.444;2023-11-21T11:10:45;13.47;;;6.50;;
68718;SDS011;55696;52.138;5.444;2023-11-21T11:13:15;11.35;;;5.20;;
68718;SDS011;55696;52.138;5.444;2023-11-21T11:15:43;17.00;;;6.80;;
68718;SDS011;55696;52.138;5.444;2023-11-21T11:18:14;15.27;;;6.68;;
68718;SDS011;55696;52.138;5.444;2023-11-21T11:20:42;12.50;;;6.78;;
68718;SDS011;55696;52.138;5.444;2023-11-21T11:23:29;14.90;;;7.30;;
68718;SDS011;55696;52.138;5.444;2023-11-21T11:29:08;12.60;;;5.95;;
68718;SDS011;55696;52.138;5.444;2023-11-21T11:34:36;10.15;;;5.97;;
68718;SDS011;55696;52.138;5.444;2023-11-21T11:37:16;11.97;;;6.57;;
68718;SDS011;55696;52.138;5.444;2023-11-21T11:39:43;11.68;;;6.47;;
68718;SDS011;55696;52.138;5.444;2023-11-21T11:42:12;11.30;;;6.28;;
68718;SDS011;55696;52.138;5.444;2023-11-21T11:47:19;13.15;;;6.55;;
68718;SDS011;55696;52.138;5.444;2023-11-21T11:52:40;12.45;;;7.05;;
68718;SDS011;55696;52.138;5.444;2023-11-21T11:55:15;13.68;;;6.95;;
68718;SDS011;55696;52.138;5.444;2023-11-21T11:57:46;13.23;;;7.05;;
68718;SDS011;55696;52.138;5.444;2023-11-21T12:00:22;11.80;;;6.38;;
68718;SDS011;55696;52.138;5.444;2023-11-21T12:03:07;15.03;;;6.73;;
68718;SDS011;55696;52.138;5.444;2023-11-21T12:05:35;14.43;;;6.80;;
68718;SDS011;55696;52.138;5.444;2023-11-21T12:08:05;14.63;;;7.10;;
68718;SDS011;55696;52.138;5.444;2023-11-21T12:10:34;16.85;;;7.35;;
68718;SDS011;55696;52.138;5.444;2023-11-21T12:13:07;14.95;;;7.53;;
68718;SDS011;55696;52.138;5.444;2023-11-21T12:15:36;17.37;;;8.80;;
68718;SDS011;55696;52.138;5.444;2023-11-21T12:18:05;15.32;;;8.52;;
68718;SDS011;55696;52.138;5.444;2023-11-21T12:20:32;18.35;;;7.72;;
68718;SDS011;55696;52.138;5.444;2023-11-21T12:23:05;15.82;;;8.00;;
68718;SDS011;55696;52.138;5.444;2023-11-21T12:25:32;19.63;;;8.88;;
68718;SDS011;55696;52.138;5.444;2023-11-21T12:28:00;16.10;;;8.73;;
68718;SDS011;55696;52.138;5.444;2023-11-21T12:30:30;16.38;;;7.43;;
68718;SDS011;55696;52.138;5.444;2023-11-21T12:32:58;15.77;;;7.85;;
68718;SDS011;55696;52.138;5.444;2023-11-21T12:35:30;17.17;;;9.00;;
68718;SDS011;55696;52.138;5.444;2023-11-21T12:38:02;15.10;;;7.45;;
68718;SDS011;55696;52.138;5.444;2023-11-21T12:40:30;17.70;;;8.50;;
68718;SDS011;55696;52.138;5.444;2023-11-21T12:42:59;17.13;;;8.27;;
68718;SDS011;55696;52.138;5.444;2023-11-21T12:45:28;15.07;;;7.90;;
68718;SDS011;55696;52.138;5.444;2023-11-21T12:47:58;20.52;;;8.07;;
68718;SDS011;55696;52.138;5.444;2023-11-21T12:50:28;20.23;;;8.98;;
68718;SDS011;55696;52.138;5.444;2023-11-21T12:52:58;15.47;;;7.97;;
68718;SDS011;55696;52.138;5.444;2023-11-21T12:55:26;15.32;;;8.20;;
68718;SDS011;55696;52.138;5.444;2023-11-21T12:57:57;17.92;;;8.52;;
68718;SDS011;55696;52.138;5.444;2023-11-21T13:00:33;19.70;;;9.60;;
68718;SDS011;55696;52.138;5.444;2023-11-21T13:03:04;15.80;;;8.50;;
68718;SDS011;55696;52.138;5.444;2023-11-21T13:05:35;17.17;;;7.97;;
68718;SDS011;55696;52.138;5.444;2023-11-21T13:08:09;17.23;;;8.13;;
68718;SDS011;55696;52.138;5.444;2023-11-21T13:10:39;17.17;;;8.00;;
68718;SDS011;55696;52.138;5.444;2023-11-21T13:13:10;14.75;;;7.60;;
68718;SDS011;55696;52.138;5.444;2023-11-21T13:15:48;15.70;;;7.38;;
68718;SDS011;55696;52.138;5.444;2023-11-21T13:18:16;13.47;;;6.83;;
68718;SDS011;55696;52.138;5.444;2023-11-21T13:20:43;11.25;;;6.13;;
68718;SDS011;55696;52.138;5.444;2023-11-21T13:23:10;10.10;;;5.45;;
68718;SDS011;55696;52.138;5.444;2023-11-21T13:25:42;10.98;;;5.10;;
68718;SDS011;55696;52.138;5.444;2023-11-21T13:28:19;9.00;;;4.10;;
68718;SDS011;55696;52.138;5.444;2023-11-21T13:30:49;9.27;;;4.57;;
68718;SDS011;55696;52.138;5.444;2023-11-21T13:33:19;6.93;;;3.55;;
68718;SDS011;55696;52.138;5.444;2023-11-21T13:35:48;6.63;;;3.40;;
68718;SDS011;55696;52.138;5.444;2023-11-21T13:38:17;6.85;;;2.97;;
68718;SDS011;55696;52.138;5.444;2023-11-21T13:40:54;6.97;;;3.55;;
68718;SDS011;55696;52.138;5.444;2023-11-21T13:43:22;6.90;;;3.20;;
68718;SDS011;55696;52.138;5.444;2023-11-21T13:45:52;6.93;;;3.63;;
68718;SDS011;55696;52.138;5.444;2023-11-21T13:48:29;7.55;;;3.42;;
68718;SDS011;55696;52.138;5.444;2023-11-21T13:51:07;9.95;;;4.80;;
68718;SDS011;55696;52.138;5.444;2023-11-21T13:53:44;10.57;;;5.32;;
68718;SDS011;55696;52.138;5.444;2023-11-21T13:56:14;10.63;;;5.03;;
68718;SDS011;55696;52.138;5.444;2023-11-21T13:58:46;9.75;;;5.50;;
68718;SDS011;55696;52.138;5.444;2023-11-21T14:01:18;15.68;;;6.15;;
68718;SDS011;55696;52.138;5.444;2023-11-21T14:04:05;16.85;;;8.18;;
68718;SDS011;55696;52.138;5.444;2023-11-21T14:06:46;16.42;;;8.13;;
68718;SDS011;55696;52.138;5.444;2023-11-21T14:09:15;16.40;;;8.03;;
68718;SDS011;55696;52.138;5.444;2023-11-21T14:11:50;18.45;;;8.77;;
68718;SDS011;55696;52.138;5.444;2023-11-21T14:14:19;18.35;;;8.75;;
68718;SDS011;55696;52.138;5.444;2023-11-21T14:16:47;18.10;;;8.73;;
68718;SDS011;55696;52.138;5.444;2023-11-21T14:19:14;19.27;;;9.80;;
68718;SDS011;55696;52.138;5.444;2023-11-21T14:21:45;17.50;;;8.40;;
68718;SDS011;55696;52.138;5.444;2023-11-21T14:24:13;16.52;;;8.50;;
68718;SDS011;55696;52.138;5.444;2023-11-21T14:26:40;16.33;;;8.00;;
68718;SDS011;55696;52.138;5.444;2023-11-21T14:29:08;17.73;;;8.77;;
68718;SDS011;55696;52.138;5.444;2023-11-21T14:31:38;20.15;;;9.15;;
68718;SDS011;55696;52.138;5.444;2023-11-21T14:34:06;21.83;;;9.33;;
68718;SDS011;55696;52.138;5.444;2023-11-21T14:36:33;18.15;;;9.43;;
68718;SDS011;55696;52.138;5.444;2023-11-21T14:39:03;17.65;;;8.68;;
68718;SDS011;55696;52.138;5.444;2023-11-21T14:41:35;21.05;;;10.40;;
68718;SDS011;55696;52.138;5.444;2023-11-21T14:44:04;17.65;;;8.18;;
68718;SDS011;55696;52.138;5.444;2023-11-21T14:46:33;17.30;;;7.97;;
68718;SDS011;55696;52.138;5.444;2023-11-21T14:49:03;19.30;;;8.60;;
68718;SDS011;55696;52.138;5.444;2023-11-21T14:51:46;20.60;;;10.95;;
68718;SDS011;55696;52.138;5.444;2023-11-21T14:54:27;23.05;;;10.15;;
68718;SDS011;55696;52.138;5.444;2023-11-21T14:57:08;20.67;;;10.40;;
68718;SDS011;55696;52.138;5.444;2023-11-21T14:59:45;24.17;;;10.30;;
68718;SDS011;55696;52.138;5.444;2023-11-21T15:02:15;21.33;;;10.18;;